createdAt,value
2019-04-29T00:00:54.011Z,19.50
2019-04-29T00:06:14.811Z,19.30
2019-04-29T00:17:50.158Z,17.80
2019-04-29T00:22:51.571Z,18.20
2019-04-29T00:27:52.866Z,20.47
2019-04-29T00:32:58.222Z,18.47
2019-04-29T00:38:01.658Z,21.93
2019-04-29T00:43:14.113Z,18.50
2019-04-29T00:48:18.663Z,18.97
2019-04-29T00:53:41.085Z,20.00
2019-04-29T00:58:44.562Z,19.77
2019-04-29T01:03:48.372Z,19.73
2019-04-29T01:08:53.030Z,20.90
2019-04-29T01:13:54.356Z,19.20
2019-04-29T01:19:03.879Z,18.07
2019-04-29T01:24:08.512Z,19.33
2019-04-29T01:29:15.589Z,18.57
2019-04-29T01:34:24.189Z,18.10
2019-04-29T01:39:28.737Z,20.90
2019-04-29T01:44:36.478Z,20.10
2019-04-29T01:49:41.074Z,21.10
2019-04-29T01:55:09.591Z,21.10
2019-04-29T02:00:12.450Z,18.40
2019-04-29T02:05:17.300Z,18.70
2019-04-29T02:10:48.839Z,20.03
2019-04-29T02:15:51.727Z,22.37
2019-04-29T02:20:53.097Z,21.50
2019-04-29T02:26:00.638Z,19.70
2019-04-29T02:31:23.803Z,17.27
2019-04-29T02:36:29.367Z,17.17
2019-04-29T02:41:33.401Z,19.77
2019-04-29T02:46:37.860Z,20.30
2019-04-29T02:51:54.393Z,15.10
2019-04-29T02:57:09.777Z,14.93
2019-04-29T03:02:13.041Z,20.50
2019-04-29T03:07:14.442Z,20.50
2019-04-29T03:12:15.858Z,21.93
2019-04-29T03:17:45.316Z,19.17
2019-04-29T03:22:53.664Z,15.57
2019-04-29T03:28:14.254Z,17.97
2019-04-29T03:33:17.792Z,15.83
2019-04-29T03:38:25.246Z,14.90
2019-04-29T03:43:29.991Z,14.10
2019-04-29T03:48:48.538Z,16.83
2019-04-29T03:53:53.173Z,17.10
2019-04-29T03:58:54.502Z,15.30
2019-04-29T04:04:19.577Z,17.23
2019-04-29T04:09:26.105Z,15.90
2019-04-29T04:14:36.442Z,15.80
2019-04-29T04:19:37.974Z,14.97
2019-04-29T04:24:43.779Z,14.60
2019-04-29T04:29:45.120Z,15.67
2019-04-29T04:35:08.483Z,15.40
2019-04-29T04:40:13.301Z,15.83
2019-04-29T04:45:18.018Z,16.40
2019-04-29T04:50:37.518Z,16.67
2019-04-29T04:55:44.047Z,16.57
2019-04-29T05:00:53.450Z,18.00
2019-04-29T05:06:21.801Z,18.57
2019-04-29T05:11:53.437Z,21.33
2019-04-29T05:16:58.140Z,18.17
2019-04-29T05:21:59.489Z,17.67
2019-04-29T05:27:09.982Z,20.53
2019-04-29T05:32:12.486Z,18.47
2019-04-29T05:37:36.189Z,19.07
2019-04-29T05:42:43.894Z,16.70
2019-04-29T05:47:47.250Z,17.00
2019-04-29T05:53:11.427Z,17.80
2019-04-29T05:58:50.192Z,18.10
2019-04-29T06:04:06.842Z,18.23
2019-04-29T06:09:22.432Z,18.10
2019-04-29T06:14:33.102Z,18.07
2019-04-29T06:19:39.440Z,18.03
2019-04-29T06:25:04.631Z,17.50
2019-04-29T06:30:06.631Z,17.00
2019-04-29T06:35:57.708Z,17.00
2019-04-29T06:41:05.582Z,17.33
2019-04-29T06:46:11.304Z,15.50
2019-04-29T06:51:15.829Z,16.87
2019-04-29T06:56:29.279Z,16.23
2019-04-29T07:01:43.034Z,19.87
2019-04-29T07:06:57.316Z,21.07
2019-04-29T07:12:01.595Z,19.33
2019-04-29T07:17:07.139Z,19.87
2019-04-29T07:22:14.854Z,20.00
2019-04-29T07:27:16.278Z,21.17
2019-04-29T07:32:42.254Z,24.40
2019-04-29T07:37:55.803Z,24.77
2019-04-29T07:43:02.833Z,26.33
2019-04-29T07:48:41.979Z,25.47
2019-04-29T07:54:05.476Z,26.97
2019-04-29T07:59:11.202Z,23.83
2019-04-29T08:04:15.416Z,22.67
2019-04-29T08:09:20.393Z,15.53
2019-04-29T08:14:44.988Z,16.50
2019-04-29T08:19:49.522Z,17.30
2019-04-29T08:24:54.147Z,16.53
2019-04-29T08:30:11.211Z,16.90
2019-04-29T08:35:16.455Z,15.90
2019-04-29T08:40:27.156Z,14.73
2019-04-29T08:45:34.683Z,14.47
2019-04-29T08:50:38.077Z,13.07
2019-04-29T08:55:54.934Z,14.53
2019-04-29T09:01:02.207Z,14.20
2019-04-29T09:06:10.026Z,13.67
2019-04-29T09:11:54.909Z,11.57
2019-04-29T09:17:06.099Z,8.87
2019-04-29T09:22:13.194Z,11.87
2019-04-29T09:27:20.643Z,9.80
2019-04-29T09:32:21.973Z,11.13
2019-04-29T09:37:26.510Z,11.23
2019-04-29T09:42:57.156Z,9.10
2019-04-29T09:48:06.777Z,11.53
2019-04-29T09:53:11.437Z,8.90
2019-04-29T09:58:21.328Z,6.53
2019-04-29T10:03:54.748Z,6.40
2019-04-29T10:09:39.939Z,9.47
2019-04-29T10:14:42.577Z,8.70
2019-04-29T10:19:45.843Z,7.17
2019-04-29T10:24:50.337Z,7.93
2019-04-29T10:29:55.303Z,7.13
2019-04-29T10:35:08.824Z,8.60
2019-04-29T10:40:32.644Z,8.47
2019-04-29T10:45:37.000Z,7.70
2019-04-29T10:50:47.160Z,7.00
2019-04-29T10:55:47.264Z,7.10
2019-04-29T11:01:24.436Z,7.37
2019-04-29T11:06:25.921Z,8.33
2019-04-29T11:11:34.951Z,7.40
2019-04-29T11:16:46.622Z,6.73
2019-04-29T11:21:46.532Z,6.33
2019-04-29T11:26:55.547Z,7.30
2019-04-29T11:31:58.898Z,6.77
2019-04-29T11:37:08.261Z,5.93
2019-04-29T11:42:09.901Z,5.40
2019-04-29T11:47:11.709Z,5.30
2019-04-29T11:52:13.378Z,5.53
2019-04-29T11:57:41.175Z,7.20
2019-04-29T12:03:01.890Z,5.70
2019-04-29T12:08:16.068Z,5.90
2019-04-29T12:13:30.363Z,5.30
2019-04-29T12:18:38.070Z,5.30
2019-04-29T12:23:40.208Z,5.23
2019-04-29T12:28:44.862Z,4.57
2019-04-29T12:33:51.215Z,5.40
2019-04-29T12:39:13.058Z,4.93
2019-04-29T12:44:17.570Z,5.40
2019-04-29T12:49:20.313Z,5.50
2019-04-29T12:54:27.931Z,5.40
2019-04-29T12:59:30.661Z,5.77
2019-04-29T13:04:50.163Z,5.43
2019-04-29T13:10:02.136Z,4.93
2019-04-29T13:15:13.846Z,5.03
2019-04-29T13:20:15.498Z,6.17
2019-04-29T13:25:20.875Z,5.20
2019-04-29T13:30:25.624Z,4.83
2019-04-29T13:35:28.252Z,5.93
2019-04-29T13:40:37.244Z,4.90
2019-04-29T13:45:46.031Z,3.50
2019-04-29T13:50:51.450Z,6.23
2019-04-29T13:56:10.497Z,5.87
2019-04-29T14:01:22.079Z,6.37
2019-04-29T14:06:20.164Z,6.50
2019-04-29T14:11:27.663Z,7.87
2019-04-29T14:16:48.753Z,9.00
2019-04-29T14:21:58.264Z,9.57
2019-04-29T14:27:25.531Z,9.77
2019-04-29T14:32:36.066Z,9.93
2019-04-29T14:37:34.366Z,7.00
2019-04-29T14:42:40.760Z,8.30
2019-04-29T14:48:04.830Z,8.03
2019-04-29T14:53:06.433Z,7.70
2019-04-29T14:58:09.993Z,8.17
2019-04-29T15:03:31.975Z,8.70
2019-04-29T15:08:38.165Z,8.73
2019-04-29T15:13:43.201Z,7.85
2019-04-29T15:18:50.064Z,8.80
2019-04-29T15:23:58.371Z,8.17
2019-04-29T15:29:03.355Z,9.20
2019-04-29T15:34:16.315Z,9.23
2019-04-29T15:39:19.940Z,8.90
2019-04-29T15:44:22.963Z,8.27
2019-04-29T15:49:26.534Z,9.13
2019-04-29T15:54:45.982Z,9.40
2019-04-29T15:59:58.894Z,11.80
2019-04-29T16:04:58.930Z,12.03
2019-04-29T16:10:20.474Z,12.23
2019-04-29T16:15:24.072Z,11.73
2019-04-29T16:20:28.692Z,11.47
2019-04-29T16:25:52.427Z,13.60
2019-04-29T16:30:59.173Z,13.10
2019-04-29T16:36:05.269Z,13.87
2019-04-29T16:41:26.953Z,14.50
2019-04-29T16:46:37.486Z,16.97
2019-04-29T16:51:36.977Z,18.07
2019-04-29T16:56:44.367Z,19.03
2019-04-29T17:01:46.290Z,18.27
2019-04-29T17:07:13.986Z,21.33
2019-04-29T17:12:15.435Z,19.90
2019-04-29T17:17:28.913Z,18.47
2019-04-29T17:22:28.719Z,18.67
2019-04-29T17:27:41.959Z,16.53
2019-04-29T17:32:52.755Z,18.03
2019-04-29T17:37:55.933Z,18.07
2019-04-29T17:43:06.038Z,17.07
2019-04-29T17:48:22.557Z,16.30
2019-04-29T17:53:32.206Z,13.40
2019-04-29T17:58:37.683Z,16.53
2019-04-29T18:03:59.546Z,14.20
2019-04-29T18:09:27.033Z,12.70
2019-04-29T18:14:37.806Z,12.57
2019-04-29T18:19:55.098Z,12.43
2019-04-29T18:25:02.118Z,12.27
2019-04-29T18:30:07.944Z,12.07
2019-04-29T18:35:22.787Z,11.80
2019-04-29T18:40:30.029Z,11.77
2019-04-29T18:45:39.513Z,11.10
2019-04-29T18:50:48.362Z,12.30
2019-04-29T18:56:05.234Z,11.57
2019-04-29T19:01:12.873Z,11.33
2019-04-29T19:06:15.106Z,10.57
2019-04-29T19:11:31.915Z,12.03
2019-04-29T19:16:27.982Z,10.90
2019-04-29T19:21:31.619Z,10.60
2019-04-29T19:26:35.316Z,11.13
2019-04-29T19:31:47.526Z,10.70
2019-04-29T19:36:45.011Z,10.63
2019-04-29T19:41:51.494Z,11.23
2019-04-29T19:47:00.460Z,10.43
2019-04-29T19:52:09.909Z,10.07
2019-04-29T19:57:20.616Z,10.27
2019-04-29T20:02:26.159Z,12.45
2019-04-29T20:07:28.672Z,9.93
2019-04-29T20:12:31.102Z,9.23
2019-04-29T20:17:45.773Z,9.07
2019-04-29T20:22:51.263Z,10.40
2019-04-29T20:28:04.784Z,9.20
2019-04-29T20:33:01.154Z,9.77
2019-04-29T20:38:05.691Z,9.00
2019-04-29T20:43:08.266Z,9.40
2019-04-29T20:48:11.174Z,10.23
2019-04-29T20:53:18.504Z,10.17
2019-04-29T20:58:23.442Z,9.17
2019-04-29T21:03:32.100Z,9.57
2019-04-29T21:08:51.127Z,8.87
2019-04-29T21:13:56.347Z,9.07
2019-04-29T21:19:08.849Z,10.13
2019-04-29T21:24:18.645Z,10.93
2019-04-29T21:29:19.526Z,10.20
2019-04-29T21:34:25.333Z,10.40
2019-04-29T21:39:49.713Z,10.83
2019-04-29T21:44:54.250Z,11.50
2019-04-29T21:49:58.810Z,11.10
2019-04-29T21:55:00.250Z,11.87
2019-04-29T22:00:05.667Z,12.20
2019-04-29T22:05:16.930Z,12.07
2019-04-29T22:10:29.928Z,13.13
2019-04-29T22:15:41.008Z,13.73
2019-04-29T22:20:42.237Z,12.50
2019-04-29T22:25:45.639Z,11.80
2019-04-29T22:30:54.762Z,12.00
2019-04-29T22:35:56.863Z,12.50
2019-04-29T22:41:11.765Z,13.20
2019-04-29T22:46:17.661Z,14.53
2019-04-29T22:51:19.201Z,14.03
2019-04-29T22:56:21.826Z,13.13
2019-04-29T23:01:26.345Z,14.97
2019-04-29T23:06:30.883Z,14.43
2019-04-29T23:11:34.753Z,16.10
2019-04-29T23:16:45.451Z,16.23
2019-04-29T23:21:48.783Z,16.60
2019-04-29T23:27:07.481Z,17.67
2019-04-29T23:32:10.076Z,18.23
2019-04-29T23:37:15.410Z,19.70
2019-04-29T23:42:16.906Z,18.80
2019-04-29T23:47:18.268Z,19.20
2019-04-29T23:52:23.275Z,20.33
2019-04-29T23:58:03.688Z,20.73
